NATURA VA

 METAR AND TAF INFORMATION
METAR FOR GEML
ADDS - METARS form results

(0439 UTC 16 January 2019)
Data provider http://aviationweather.gov/metar/data/
 
METAR text: GEML 160430Z AUTO 24005KT 190V310 9999 NCD 13/09 Q1019
Conditions at: GEML (MELILLA , ES) observed 0430 UTC 16 January 2019
Temperature: 13.0°C (55°F)
Dewpoint: 9.0°C (48°F) [RH = 77%]
Pressure (altimeter): 30.09 inches Hg (1019.0 mb)
Winds: from the WSW (240 degrees) at 6 MPH (5 knots; 2.6 m/s)
Visibility: 6 or more miles (10+ km)
Ceiling: at least 12,000 feet AGL
Clouds: sky clear below 12,000 feet AGL
Weather: no significant weather observed at this time

METAR text: GEML 160400Z AUTO 24005KT 180V290 9999 NCD 13/09 Q1020
Conditions at: GEML (MELILLA , ES) observed 0400 UTC 16 January 2019
Temperature: 13.0°C (55°F)
Dewpoint: 9.0°C (48°F) [RH = 77%]
Pressure (altimeter): 30.12 inches Hg (1020.0 mb)
Winds: from the WSW (240 degrees) at 6 MPH (5 knots; 2.6 m/s)
Visibility: 6 or more miles (10+ km)
Ceiling: at least 12,000 feet AGL
Clouds: sky clear below 12,000 feet AGL
Weather: no significant weather observed at this time

Forecast for: GEML (MELILLA , ES)
Text: TAF GEML 160200Z 1603/1703 25006KT 9999 FEW025 TX17/1615Z TN10/1607Z
Forecast period: 0300 UTC 16 January 2019 to 0300 UTC 17 January 2019
Forecast type: FROM: standard forecast or significant change
Winds: from the WSW (250 degrees) at 7 MPH (6 knots; 3.1 m/s)
Visibility: 6 or more miles 10+ km)
Ceiling: at least 12,000 feet AGL
Clouds: few clouds at 2500 feet AGL
Weather: no significant weather forecast for this period

 AIRPORT MAP

 RUNWAY INFORMATION
Runway 15 Runway length 4685 ft Runway width 148 ft
Runway elevation 156 ft Runway displaced threshold 755 ft Runway heading 146
Runway 33 Runway length 4685 ft Runway width 148 ft
Runway elevation 133 ft Runway displaced threshold 0 ft Runway heading 326

 AIRPORT FREQUENCIES
Type GND Name GND Frequency 121.7 MHZ
Type TWR Name TWR Frequency 118.5 MHZ

 AIRPORT NEAR NAVIGATION AIDS
Type VOR-DME Name Melilla Frequency 114250 KHZ
Type DME Name Melilla Frequency 117400 KHZ



Powered by Virtual Airlines Manager [v2.6.2]